Weather at Valhalla Airport [CLOSED]

Public forecast

Using degrees Fahrenheit for public forecast. Weather courtesy of forecast.io.

Closest aviation weather report (METAR) to Valhalla Airport

Closest report is Stinson Municipal Airport, 9.2 nm (17.0 km) NW.

2024/07/17 13:53 (retrieved 31 minutes ago)

KSSF 171353Z 17007KT 10SM SCT011 28/24 A3001 RMK AO2 SLP147 T02780239

Closest aviation forecast (TAF) to Valhalla Airport

Closest forecast is Stinson Municipal Airport, 9.2 nm (17.0 km) NW.

2024/07/17 14:46 Ammendment (retrieved 0 seconds ago)

TAF AMD KSSF 171344Z 1714/1812 16004KT P6SM SCT009 TEMPO 1714/1715 BKN009 FM171500 15008KT P6SM FEW050 SCT250 FM180600 18003KT P6SM SCT025 BKN200